Weather observations for the past three days for
St. Cloud Regional Airport
Metric (Imperial)
Date Time (cdt) Wind (kph) Vis. (km) Weather Sky Cond. Temperature (ºC) Relative Humidity Wind Chill (°C) Heat Index (°C) Pressure Precipitation (cm)
Air Dwpt 6 hour altimeter (cm) sea level (mb) 1 hr 3 hr 6 hr
Max. Min.
05 08:53 NE 9 16.09 Overcast OVC004 17.2 16.7 97% 76.35 1018.6
05 07:53 E 9 3.22 Fog/Mist OVC003 16.7 16.1 96% 76.33 1018.1
05 06:53 E 11 2.82 Fog/Mist OVC003 16.7 16.1 17.8 16.7 96% 76.28 1017.3
05 05:53 E 7 6.44 Fog/Mist OVC003 16.7 16.1 96% 76.28 1017.2
05 04:53 E 11 2.01 Fog/Mist OVC003 16.7 16.1 96% 76.2 1016.3
05 03:53 Vrbl 9 1.21 Fog/Mist VV002 16.7 16.1 96% 76.2 1016.2
05 02:53 NE 9 8.05 Fog/Mist OVC002 17.2 16.7 97% 76.23 1016.6
05 01:53 E 9 14.48 Overcast OVC004 17.2 16.7 97% 76.23 1016.7
05 00:53 NE 9 16.09 Overcast OVC004 17.8 16.7 27.2 17.8 93% 76.23 1016.8
04 23:53 E 7 16.09 Overcast OVC006 17.8 16.7 93% 76.23 1016.8
04 22:53 Vrbl 7 16.09 Fair CLR 17.8 16.7 93% 76.23 1016.5
04 21:53 NE 9 16.09 Fair CLR 18.9 16.7 87% 76.2 1016.3
04 20:53 NE 15 16.09 Fair CLR 21.1 17.8 82% 76.15 1015.7
04 19:53 NE 9 16.09 Fair CLR 24.4 20 77% 25 76.07 1014.5
04 18:53 NE 7 16.09 Fair CLR 27.2 20 30 25 65% 29 76.05 1014.3
04 17:53 NE 13 16.09 Fair CLR 28.9 20 59% 31 76.02 1013.8
04 16:53 Vrbl 7 16.09 Fair CLR 30 20 55% 32 76.02 1013.5
04 15:53 Calm 16.09 Fair CLR 28.9 19.4 57% 30 76 1013.5
04 14:53 Vrbl 6 16.09 Partly Cloudy SCT027 27.2 19.4 62% 29 76.02 1013.6
04 13:53 NE 9 16.09 Overcast OVC024 27.2 19.4 62% 29 76.05 1013.8
04 12:53 N 11 16.09 Overcast OVC021 25.6 19.4 25.6 18.9 69% 27 76.02 1013.9
04 11:53 NE 11 16.09 Overcast OVC012 23.9 20.6 82% 24 76.05 1013.9
04 10:53 NW 6 16.09 Overcast OVC013 23.3 20 82% 76 1013.3
04 09:53 NE 6 11.27 Overcast BKN006 OVC010 21.7 19.4 87% 75.95 1012.7
04 08:53 N 9 4.83 Fog/Mist OVC004 20.6 18.9 90% 75.92 1012.4
04 07:53 Calm 3.22 Fog/Mist OVC004 19.4 18.3 93% 75.87 1011.6
04 06:53 E 7 14.48 Overcast OVC005 18.9 17.8 22.8 18.9 93% 75.84 1011.2
04 05:53 N 6 16.09 Overcast OVC007 18.9 17.2 90% 75.82 1011.1
04 04:53 E 9 16.09 Overcast OVC007 19.4 17.2 87% 75.79 1010.4
04 03:53 Vrbl 11 16.09 Mostly Cloudy BKN007 18.9 17.8 93% 75.77 1010.1
04 02:53 NE 17 0.00 A Few Clouds FEW008 22.2 20.6 91% 75.74 1009.8
04 01:53 E 7 0.00 Fair CLR 22.2 21.1 94% 75.72 1009.3
04 00:53 E 11 0.00 Fair CLR 22.8 21.1 28.9 22.8 90% 75.72 1009.4
03 23:53 E 15 0.00 Fair CLR 23.3 21.1 88% 75.69 1009.0
03 22:53 E 17 16.09 Fair CLR 23.9 21.1 84% 24 75.67 1008.9
03 21:53 E 9 16.09 Fair CLR 25 20.6 77% 26 75.69 1009.1
03 20:53 E 6 16.09 Fair CLR 26.1 20.6 72% 28 75.64 1008.5
03 19:53 SE 9 16.09 Fair CLR 27.8 20.6 65% 30 75.59 1008.0
03 18:53 SE 22 16.09 Mostly Cloudy BKN047 29.4 20.6 32.2 29.4 59% 32 75.59 1008.0
03 17:53 SE 19 16.09 Overcast BKN044 OVC050 29.4 20.6 59% 32 75.59 1007.8
03 16:53 SE 19 G 31 16.09 A Few Clouds FEW049 30.6 20.6 55% 33 75.57 1007.6
03 15:53 SE 26 G 39 16.09 Fair CLR 31.1 20 52% 33 75.57 1007.5
03 14:53 S 24 G 44 16.09 Fair CLR 31.7 19.4 48% 33 75.59 1007.9
03 13:53 S 22 16.09 Fair CLR 31.1 19.4 50% 33 75.64 1008.5
03 12:53 S 28 G 46 16.09 Fair CLR 31.7 18.3 32.2 19.4 45% 33 75.69 1009.0
03 11:53 SE 17 G 35 16.09 Fair CLR 31.1 18.9 48% 32 75.72 1009.3
03 10:53 E 11 16.09 Fair CLR 27.8 19.4 60% 29 75.74 1010.0
03 09:53 SE 15 16.09 Fair CLR 25 18.9 69% 26 75.77 1010.3
03 08:53 E 9 16.09 Fair CLR 22.8 17.8 74% 75.77 1010.5
03 07:53 Vrbl 9 16.09 Partly Cloudy FEW046 SCT065 20.6 16.7 78% 75.82 1011.1
03 06:53 E 15 16.09 Partly Cloudy SCT050 19.4 16.1 21.7 19.4 81% 75.79 1010.7
03 05:53 E 11 16.09 Fair CLR 19.4 16.1 81% 75.79 1010.7
03 04:53 E 11 16.09 Fair CLR 20 16.1 78% 75.79 1010.4
03 03:53 E 11 16.09 Fair CLR 20.6 15.6 73% 75.79 1010.5
03 02:53 E 11 16.09 Fair CLR 20.6 15.6 73% 75.82 1010.9
03 01:53 E 9 16.09 Fair CLR 21.7 15.6 68% 75.84 1011.1
03 00:53 E 9 0.00 Fair CLR 21.7 15 27.8 21.7 66% 75.87 1011.5
02 23:53 E 7 0.00 Fair CLR 22.2 15.6 66% 75.9 1012.0
02 22:53 E 11 16.09 A Few Clouds FEW065 23.3 15 60% 75.9 1012.1
02 21:53 NE 6 16.09 Overcast OVC060 23.9 15.6 60% 25 75.9 1012.2
02 20:53 E 7 0.00 Mostly Cloudy BKN070 BKN090 24.4 15 56% 26 75.9 1011.9
02 19:53 E 7 16.09 A Few Clouds FEW080 25 16.1 58% 26 75.84 1011.5
02 18:53 E 11 16.09 Fair CLR 27.8 16.7 30 27.8 51% 28 75.84 1011.4
02 17:53 NE 9 16.09 Partly Cloudy SCT095 28.9 16.7 48% 29 75.84 1011.4
02 16:53 E 11 16.09 Fair CLR 30 16.1 43% 30 75.87 1011.7
02 15:53 E 13 16.09 Fair CLR 30 15.6 42% 30 75.87 1011.8
02 14:53 E 9 16.09 Fair CLR 30 15.6 42% 30 75.9 1012.0
02 13:53 Vrbl 7 16.09 Fair CLR 28.3 15.6 46% 28 75.95 1012.6
02 12:53 Vrbl 6 16.09 Fair CLR 27.8 13.9 28.3 16.1 43% 28 76 1013.3
02 11:53 Vrbl 9 16.09 Fair CLR 26.7 14.4 47% 27 76 1013.3
02 10:53 E 9 16.09 Fair CLR 25 16.1 58% 26 76 1013.5
Date Time (cdt) Wind (kph) Vis. (km) Weather Sky Cond. Air Dwpt Max. Min. Relative Humidity Wind Chill (°C) Heat Index (°C) altimeter (cm) sea level (mb) 1 hr 3 hr 6 hr
6 hour
Temperature (ºC) Pressure Precipitation (cm)